^^
Station Historical Data
Daily Summary for February 17, 2017 Units:  Metric    English   Both
« Previous Day
Next Day »
Daily Weekly Monthly Yearly Custom
  High: Low: Average:
Temperature: 37.9 °C 20.2 °C 27.9 °C
Dew Point: 16.8 °C 9.7 °C 12.3 °C
Humidity: 54% 26% 40%
Wind Speed: 22.7km/h 0km/h 8.4km/h
Wind Gust: 27.4km/h - -
Wind- - South
Pressure: 1009.7 hPa 1003.9 hPa -
Precipitation: 0 mm    
Historical Graphs
 
 
Tabular Data for February 17, 2017
Time Temperature Dew Point Pressure Wind Wind Speed Wind Gust Humidity Rainfall Rate (Hourly) solar Conditions
00:21 22.8 °C 10.2 °C 1009.7 hPa SSW 20.9 km/h 24.1 km/h 45% 0 mm 0.0 W/m2
00:35 22.6 °C 10.1 °C 1009.7 hPa SW 19.5 km/h 22.5 km/h 45% 0 mm 0.0 W/m2
01:56 21.7 °C 10.2 °C 1009.4 hPa SW 14.3 km/h 17.7 km/h 48% 0 mm 0.0 W/m2
01:57 21.7 °C 10.2 °C 1009.4 hPa SW 11.1 km/h 17.7 km/h 48% 0 mm 0.0 W/m2
02:21 21.5 °C 10.3 °C 1009.7 hPa SW 14.3 km/h 22.5 km/h 49% 0 mm 0.0 W/m2
02:26 21.5 °C 10.3 °C 1009.7 hPa SW 13 km/h 19.3 km/h 49% 0 mm 0.0 W/m2
03:18 21.3 °C 10.5 °C 1009.7 hPa SW 7.9 km/h 11.3 km/h 50% 0 mm 0.0 W/m2
03:23 21.3 °C 10.5 °C 1009.7 hPa SW 7.9 km/h 11.3 km/h 50% 0 mm 0.0 W/m2
03:33 21.3 °C 10.5 °C 1009.7 hPa SW 7.9 km/h 12.9 km/h 50% 0 mm 0.0 W/m2
03:37 21.3 °C 10.5 °C 1009.4 hPa SW 9.7 km/h 12.9 km/h 50% 0 mm 0.0 W/m2
03:42 21.3 °C 10.5 °C 1009.4 hPa SW 9.7 km/h 12.9 km/h 50% 0 mm 0.0 W/m2
05:29 20.6 °C 10.4 °C 1008.7 hPa SW 4.7 km/h 6.4 km/h 52% 0 mm 0.0 W/m2
05:34 20.6 °C 10.4 °C 1008.7 hPa SW 7.9 km/h 8 km/h 52% 0 mm 0.0 W/m2
05:39 20.5 °C 10.6 °C 1008.7 hPa SW 4.7 km/h 9.7 km/h 53% 0 mm 0.0 W/m2
05:44 20.4 °C 10.5 °C 1008.7 hPa SW 6.4 km/h 9.7 km/h 53% 0 mm 0.0 W/m2
05:54 20.4 °C 10.5 °C 1008.4 hPa SW 6.4 km/h 11.3 km/h 53% 0 mm 0.0 W/m2
05:59 20.4 °C 10.5 °C 1008.7 hPa SW 9.7 km/h 11.3 km/h 53% 0 mm 0.0 W/m2
06:04 20.4 °C 10.5 °C 1008.7 hPa SW 6.4 km/h 9.7 km/h 53% 0 mm 0.0 W/m2
06:09 20.4 °C 10.5 °C 1008.7 hPa SW 7.9 km/h 11.3 km/h 53% 0 mm 0.0 W/m2
06:14 20.3 °C 10.4 °C 1008.7 hPa SW 7.9 km/h 11.3 km/h 53% 0 mm 0.0 W/m2
06:20 20.3 °C 10.7 °C 1008.4 hPa SW 6.4 km/h 8 km/h 54% 0 mm 0.0 W/m2
06:25 20.2 °C 10.6 °C 1008.7 hPa SW 6.4 km/h 9.7 km/h 54% 0 mm 0.0 W/m2
06:35 20.2 °C 10.6 °C 1008.7 hPa SW 9.7 km/h 11.3 km/h 54% 0 mm 0.0 W/m2
06:41 20.2 °C 10.6 °C 1008.7 hPa SW 6.4 km/h 8 km/h 54% 0 mm 7.0 W/m2
06:56 20.3 °C 10.4 °C 1008.7 hPa SW 7.9 km/h 8 km/h 53% 0 mm 23.0 W/m2
07:11 20.7 °C 10.5 °C 1008.7 hPa SW 9.7 km/h 11.3 km/h 52% 0 mm 58.0 W/m2
07:16 20.8 °C 10.6 °C 1008.7 hPa SW 7.9 km/h 12.9 km/h 52% 0 mm 72.0 W/m2
07:26 20.9 °C 10.7 °C 1008.7 hPa SW 7.9 km/h 12.9 km/h 52% 0 mm 88.0 W/m2
07:31 21.1 °C 10.6 °C 1008.7 hPa SW 11.1 km/h 12.9 km/h 51% 0 mm 128.0 W/m2
07:39 21.2 °C 10.7 °C 1008.7 hPa SW 7.9 km/h 11.3 km/h 51% 0 mm 149.0 W/m2
07:52 21.4 °C 10.8 °C 1008.7 hPa SW 11.1 km/h 12.9 km/h 51% 0 mm 193.0 W/m2
08:07 22 °C 10.8 °C 1008.7 hPa SW 6.4 km/h 11.3 km/h 49% 0 mm 250.0 W/m2
08:20 22.7 °C 10.8 °C 1009 hPa SW 9.7 km/h 12.9 km/h 47% 0 mm 304.0 W/m2
08:29 23.3 °C 10.7 °C 1009 hPa SW 9.7 km/h 11.3 km/h 45% 0 mm 341.0 W/m2
08:30 23.5 °C 10.5 °C 1009 hPa SW 11.1 km/h 11.3 km/h 44% 0 mm 360.0 W/m2
08:46 24.1 °C 10.4 °C 1008.7 hPa SW 11.1 km/h 14.5 km/h 42% 0 mm 396.0 W/m2
08:50 24.3 °C 10.2 °C 1009 hPa SW 7.9 km/h 11.3 km/h 41% 0 mm 425.0 W/m2
09:00 24.7 °C 10.2 °C 1008.7 hPa SW 7.9 km/h 8 km/h 40% 0 mm 462.0 W/m2
09:10 25.4 °C 9.7 °C 1009 hPa SW 4.7 km/h 8 km/h 37% 0 mm 497.0 W/m2
09:23 26.1 °C 9.9 °C 1009 hPa Calm     36% 0 mm 531.0 W/m2
10:49 31.3 °C 10.6 °C 1008.7 hPa Calm     28% 0 mm 793.0 W/m2
10:54 31.6 °C 10.9 °C 1008.7 hPa SW 3.2 km/h 4.8 km/h 28% 0 mm 817.0 W/m2
11:52 33.4 °C 11.9 °C 1008 hPa Calm   4.8 km/h 27% 0 mm 888.0 W/m2
12:10 34.5 °C 12.8 °C 1008 hPa Calm   8 km/h 27% 0 mm 1060.0 W/m2
12:19 34.6 °C 12.9 °C 1008 hPa SW 9.7 km/h 9.7 km/h 27% 0 mm 879.0 W/m2
12:29 34.7 °C 13 °C 1007.7 hPa Calm     27% 0 mm 974.0 W/m2
12:38 34.8 °C 14.7 °C 1007.7 hPa SW 7.9 km/h 9.7 km/h 30% 0 mm 1049.0 W/m2
12:43 34.8 °C 13.6 °C 1007.7 hPa Calm     28% 0 mm 970.0 W/m2
12:46 35.1 °C 13.3 °C 1007.3 hPa Calm   8 km/h 27% 0 mm 1039.0 W/m2
12:51 35.1 °C 13.9 °C 1007.3 hPa Calm     28% 0 mm 905.0 W/m2
13:09 35.5 °C 13.6 °C 1007.3 hPa SW 7.9 km/h 16.1 km/h 27% 0 mm 1107.0 W/m2
15:19 37.9 °C 15.1 °C 1005.3 hPa West 1.4 km/h 11.3 km/h 26% 0 mm 814.0 W/m2
15:29 37.8 °C 15 °C 1005.3 hPa Calm     26% 0 mm 907.0 W/m2
16:07 36.1 °C 16.8 °C 1004.6 hPa ENE 20.9 km/h 24.1 km/h 32% 0 mm 174.0 W/m2
16:16 36.3 °C 16.5 °C 1004.3 hPa ENE 7.9 km/h 25.7 km/h 31% 0 mm 719.0 W/m2
16:24 37.1 °C 16.1 °C 1004.3 hPa ENE 4.7 km/h 20.9 km/h 29% 0 mm 735.0 W/m2
16:29 37.2 °C 16.2 °C 1003.9 hPa ENE 7.9 km/h 24.1 km/h 29% 0 mm 724.0 W/m2
16:36 37.4 °C 16.4 °C 1003.9 hPa ENE 14.3 km/h 17.7 km/h 29% 0 mm 772.0 W/m2
16:42 37.4 °C 16.4 °C 1004.3 hPa East 4.7 km/h 27.4 km/h 29% 0 mm 339.0 W/m2
16:44 37.4 °C 16.4 °C 1004.3 hPa ENE 14.3 km/h 19.3 km/h 29% 0 mm 731.0 W/m2
17:01 37.3 °C 16.3 °C 1003.9 hPa East 4.7 km/h 16.1 km/h 29% 0 mm 615.0 W/m2
17:10 36.6 °C 16.2 °C 1003.9 hPa Calm   11.3 km/h 30% 0 mm 160.0 W/m2
17:26 36.4 °C 15.5 °C 1003.9 hPa East 3.2 km/h 8 km/h 29% 0 mm 151.0 W/m2
17:30 36.8 °C 15.3 °C 1003.9 hPa East 6.4 km/h 11.3 km/h 28% 0 mm 452.0 W/m2
17:40 36.9 °C 14.8 °C 1003.9 hPa East 17.7 km/h 22.5 km/h 27% 0 mm 172.0 W/m2
17:45 36.7 °C 14.7 °C 1003.9 hPa East 9.7 km/h 20.9 km/h 27% 0 mm 151.0 W/m2
17:50 36.6 °C 14.6 °C 1003.9 hPa East 14.3 km/h 14.5 km/h 27% 0 mm 139.0 W/m2
18:05 36.6 °C 15.1 °C 1003.9 hPa East 1.4 km/h 14.5 km/h 28% 0 mm 113.0 W/m2
18:10 36.2 °C 14.8 °C 1003.9 hPa Calm   8 km/h 28% 0 mm 125.0 W/m2
18:15 36.2 °C 14.8 °C 1003.9 hPa East 4.7 km/h 4.8 km/h 28% 0 mm 141.0 W/m2
18:20 36.2 °C 14.8 °C 1003.9 hPa East 9.7 km/h 9.7 km/h 28% 0 mm 125.0 W/m2
18:25 36.3 °C 14.9 °C 1003.9 hPa East 4.7 km/h 12.9 km/h 28% 0 mm 234.0 W/m2
18:32 36.6 °C 15.1 °C 1003.9 hPa East 13 km/h 17.7 km/h 28% 0 mm 148.0 W/m2
22:27 27.4 °C 12.6 °C 1007.3 hPa SW 9.7 km/h 14.5 km/h 40% 0 mm 0.0 W/m2
22:35 27.4 °C 12.6 °C 1007.3 hPa SW 14.3 km/h 16.1 km/h 40% 0 mm 0.0 W/m2
22:38 27.4 °C 12.6 °C 1007.3 hPa SW 14.3 km/h 20.9 km/h 40% 0 mm 0.0 W/m2
22:44 27.3 °C 12.5 °C 1007.3 hPa SW 16.3 km/h 20.9 km/h 40% 0 mm 0.0 W/m2
23:44 26.4 °C 12.1 °C 1007.3 hPa SSW 13 km/h 20.9 km/h 41% 0 mm 0.0 W/m2
23:49 26.1 °C 12.2 °C 1007.3 hPa SSW 13 km/h 22.5 km/h 42% 0 mm 0.0 W/m2
23:54 25.9 °C 12 °C 1007.3 hPa SSW 19.5 km/h 27.4 km/h 42% 0 mm 0.0 W/m2
23:59 25.8 °C 11.9 °C 1007.3 hPa SSW 22.7 km/h 24.1 km/h 42% 0 mm 0.0 W/m2
Canyon Roadhouse, Fishriver Canyon, Namibia
Compliments of Weather Underground - 2 mb